createdAt,value
2023-04-19T00:01:08.570Z,31.30
2023-04-19T00:03:35.378Z,31.27
2023-04-19T00:06:02.474Z,31.16
2023-04-19T00:08:29.064Z,31.35
2023-04-19T00:10:55.702Z,31.32
2023-04-19T00:13:22.263Z,31.19
2023-04-19T00:15:49.166Z,31.17
2023-04-19T00:18:15.770Z,31.14
2023-04-19T00:20:42.814Z,31.11
2023-04-19T00:23:09.386Z,31.31
2023-04-19T00:25:35.968Z,31.34
2023-04-19T00:28:02.603Z,31.35
2023-04-19T00:30:29.204Z,31.23
2023-04-19T00:32:58.058Z,31.31
2023-04-19T00:35:24.789Z,31.47
2023-04-19T00:37:52.073Z,31.34
2023-04-19T00:40:18.698Z,31.36
2023-04-19T00:42:45.295Z,31.29
2023-04-19T00:45:11.962Z,31.29
2023-04-19T00:47:38.950Z,31.35
2023-04-19T00:50:06.118Z,31.35
2023-04-19T00:52:33.011Z,31.38
2023-04-19T00:54:59.816Z,31.37
2023-04-19T00:57:26.350Z,31.31
2023-04-19T00:59:52.904Z,31.25
2023-04-19T01:02:21.945Z,31.19
2023-04-19T01:04:49.900Z,31.35
2023-04-19T01:07:16.434Z,31.37
2023-04-19T01:09:46.330Z,31.28
2023-04-19T01:12:12.883Z,31.26
2023-04-19T01:14:42.751Z,31.46
2023-04-19T01:17:09.577Z,31.24
2023-04-19T01:19:36.675Z,31.34
2023-04-19T01:22:04.115Z,31.31
2023-04-19T01:24:30.809Z,31.32
2023-04-19T01:26:57.315Z,31.36
2023-04-19T01:29:23.812Z,31.17
2023-04-19T01:31:53.866Z,31.30
2023-04-19T01:34:20.810Z,31.24
2023-04-19T01:36:47.413Z,31.36
2023-04-19T01:39:14.080Z,31.36
2023-04-19T01:41:40.757Z,31.27
2023-04-19T01:44:09.482Z,31.30
2023-04-19T01:46:38.792Z,31.27
2023-04-19T01:49:05.673Z,31.08
2023-04-19T01:51:32.300Z,31.15
2023-04-19T01:54:02.438Z,31.03
2023-04-19T01:56:29.084Z,31.26
2023-04-19T01:58:56.455Z,31.12
2023-04-19T02:01:23.206Z,31.29
2023-04-19T02:03:51.289Z,31.27
2023-04-19T02:06:18.041Z,31.12
2023-04-19T02:08:44.633Z,31.26
2023-04-19T02:11:11.993Z,31.41
2023-04-19T02:13:38.571Z,31.28
2023-04-19T02:16:07.059Z,31.25
2023-04-19T02:18:38.292Z,31.25
2023-04-19T02:21:05.741Z,31.27
2023-04-19T02:23:32.424Z,31.19
2023-04-19T02:26:01.442Z,31.21
2023-04-19T02:28:27.961Z,31.27
2023-04-19T02:30:54.544Z,31.12
2023-04-19T02:33:22.169Z,31.04
2023-04-19T02:35:48.713Z,31.15
2023-04-19T02:38:15.556Z,31.35
2023-04-19T02:40:42.132Z,31.20
2023-04-19T02:43:08.750Z,31.24
2023-04-19T02:45:36.229Z,30.94
2023-04-19T02:48:02.948Z,31.25
2023-04-19T02:50:29.633Z,31.46
2023-04-19T02:52:57.454Z,31.32
2023-04-19T02:55:25.558Z,31.26
2023-04-19T02:58:02.515Z,31.14
2023-04-19T03:00:29.910Z,31.49
2023-04-19T03:03:04.808Z,31.36
2023-04-19T03:05:33.044Z,31.48
2023-04-19T03:07:59.662Z,31.41
2023-04-19T03:10:26.646Z,31.32
2023-04-19T03:12:53.239Z,31.51
2023-04-19T03:15:20.594Z,31.47
2023-04-19T03:17:47.332Z,31.32
2023-04-19T03:20:16.970Z,31.46
2023-04-19T03:22:43.912Z,31.44
2023-04-19T03:25:12.624Z,31.58
2023-04-19T03:27:41.671Z,31.60
2023-04-19T03:30:12.782Z,31.50
2023-04-19T03:32:40.219Z,31.63
2023-04-19T03:35:08.441Z,31.50
2023-04-19T03:37:35.646Z,31.46
2023-04-19T03:40:03.759Z,31.54
2023-04-19T03:42:33.738Z,31.29
2023-04-19T03:45:06.884Z,31.68
2023-04-19T03:47:38.178Z,31.56
2023-04-19T03:50:05.574Z,31.39
2023-04-19T03:52:33.808Z,31.37
2023-04-19T03:55:01.825Z,31.60
2023-04-19T03:57:34.482Z,31.61
2023-04-19T04:00:08.197Z,31.56
2023-04-19T04:02:40.808Z,31.67
2023-04-19T04:05:08.029Z,31.55
2023-04-19T04:07:35.709Z,31.64
2023-04-19T04:10:03.624Z,31.55
2023-04-19T04:12:34.556Z,31.54
2023-04-19T04:15:02.946Z,31.55
2023-04-19T04:17:30.821Z,31.57
2023-04-19T04:19:57.894Z,31.61
2023-04-19T04:22:28.471Z,31.68
2023-04-19T04:24:57.997Z,31.62
2023-04-19T04:27:30.458Z,31.53
2023-04-19T04:29:57.640Z,31.45
2023-04-19T04:32:24.393Z,31.61
2023-04-19T04:34:56.635Z,31.63
2023-04-19T04:37:34.045Z,31.49
2023-04-19T04:40:01.586Z,31.72
2023-04-19T04:42:31.382Z,31.81
2023-04-19T04:44:58.701Z,31.61
2023-04-19T04:47:26.163Z,31.59
2023-04-19T04:49:55.222Z,31.63
2023-04-19T04:52:22.087Z,31.47
2023-04-19T04:54:57.623Z,31.45
2023-04-19T04:57:30.354Z,31.28
2023-04-19T04:59:57.972Z,31.91
2023-04-19T05:02:28.797Z,31.81
2023-04-19T05:04:55.835Z,31.67
2023-04-19T05:07:22.399Z,31.51
2023-04-19T05:09:49.112Z,31.51
2023-04-19T05:12:20.702Z,31.29
2023-04-19T05:14:47.227Z,31.42
2023-04-19T05:17:13.930Z,31.47
2023-04-19T05:19:40.890Z,31.43
2023-04-19T05:22:07.584Z,31.46
2023-04-19T05:24:36.266Z,31.66
2023-04-19T05:27:03.274Z,31.45
2023-04-19T05:29:29.872Z,31.39
2023-04-19T05:31:57.714Z,31.31
2023-04-19T05:34:28.985Z,31.16
2023-04-19T05:36:57.239Z,31.17
2023-04-19T05:39:23.849Z,31.08
2023-04-19T05:41:51.512Z,31.19
2023-04-19T05:44:18.210Z,31.07
2023-04-19T05:46:44.850Z,31.13
2023-04-19T05:49:14.462Z,31.30
2023-04-19T05:51:43.821Z,31.07
2023-04-19T05:54:34.377Z,31.25
2023-04-19T05:57:01.867Z,31.19
2023-04-19T05:59:28.628Z,31.21
2023-04-19T06:01:56.286Z,31.27
2023-04-19T06:04:23.839Z,31.12
2023-04-19T06:06:50.988Z,31.18
2023-04-19T06:09:18.492Z,31.08
2023-04-19T06:11:50.726Z,31.10
2023-04-19T06:14:18.185Z,30.83
2023-04-19T06:16:45.382Z,30.91
2023-04-19T06:19:12.009Z,30.91
2023-04-19T06:21:38.608Z,31.04
2023-04-19T06:24:06.910Z,31.02
2023-04-19T06:26:33.495Z,30.64
2023-04-19T06:29:00.186Z,30.75
2023-04-19T06:31:26.847Z,30.68
2023-04-19T06:33:53.502Z,30.74
2023-04-19T06:36:20.295Z,30.68
2023-04-19T06:38:46.884Z,30.71
2023-04-19T06:41:13.558Z,30.55
2023-04-19T06:43:40.844Z,30.75
2023-04-19T06:46:07.813Z,30.77
2023-04-19T06:48:34.734Z,30.71
2023-04-19T06:51:04.247Z,30.85
2023-04-19T06:53:30.882Z,30.82
2023-04-19T06:56:01.273Z,30.85
2023-04-19T06:58:28.499Z,30.84
2023-04-19T07:00:55.364Z,30.55
2023-04-19T07:03:25.072Z,30.90
2023-04-19T07:05:56.470Z,30.51
2023-04-19T07:08:25.001Z,30.77
2023-04-19T07:10:53.510Z,30.81
2023-04-19T07:13:20.080Z,30.79
2023-04-19T07:15:46.699Z,30.67
2023-04-19T07:18:16.039Z,30.72
2023-04-19T07:20:45.081Z,30.81
2023-04-19T07:23:11.717Z,30.80
2023-04-19T07:25:38.267Z,30.96
2023-04-19T07:28:04.794Z,30.85
2023-04-19T07:30:31.327Z,30.73
2023-04-19T07:32:57.955Z,30.73
2023-04-19T07:35:24.628Z,30.74
2023-04-19T07:37:51.239Z,31.24
2023-04-19T07:40:17.873Z,30.64
2023-04-19T07:42:44.438Z,30.55
2023-04-19T07:45:11.476Z,30.25
2023-04-19T07:47:38.113Z,30.40
2023-04-19T07:50:05.954Z,30.79
2023-04-19T07:52:32.605Z,31.10
2023-04-19T07:54:59.178Z,30.54
2023-04-19T07:57:25.783Z,30.68
2023-04-19T07:59:55.995Z,30.37
2023-04-19T08:02:22.641Z,30.39
2023-04-19T08:04:49.854Z,30.42
2023-04-19T08:07:16.586Z,30.13
2023-04-19T08:09:43.217Z,30.57
2023-04-19T08:12:12.677Z,30.40
2023-04-19T08:14:59.407Z,30.47
2023-04-19T08:17:35.011Z,30.43
2023-04-19T08:20:07.951Z,30.49
2023-04-19T08:22:37.256Z,30.50
2023-04-19T08:25:06.671Z,30.54
2023-04-19T08:27:33.447Z,30.54
2023-04-19T08:30:00.102Z,30.29
2023-04-19T08:32:26.981Z,30.11
2023-04-19T08:34:53.917Z,29.99
2023-04-19T08:37:20.839Z,30.29
2023-04-19T08:39:47.468Z,30.35
2023-04-19T08:45:05.633Z,30.67
2023-04-19T08:47:39.352Z,30.91
2023-04-19T08:52:52.316Z,31.12
2023-04-19T08:55:23.819Z,31.10
2023-04-19T08:57:53.637Z,31.20
2023-04-19T09:00:22.973Z,30.92
2023-04-19T09:02:54.586Z,31.01
2023-04-19T09:05:24.050Z,30.72
2023-04-19T09:07:50.995Z,30.45
2023-04-19T09:10:18.857Z,30.97
2023-04-19T09:13:02.318Z,30.66
2023-04-19T09:15:38.954Z,30.70
2023-04-19T09:18:07.092Z,30.52
2023-04-19T09:20:41.030Z,30.56
2023-04-19T09:23:09.208Z,30.44
2023-04-19T09:25:55.110Z,30.44
2023-04-19T09:28:22.590Z,30.48
2023-04-19T09:31:00.574Z,30.50
2023-04-19T09:33:33.529Z,30.49
2023-04-19T09:36:00.183Z,30.31
2023-04-19T09:38:27.242Z,30.74
2023-04-19T09:41:05.560Z,30.92
2023-04-19T09:46:01.785Z,31.06
2023-04-19T09:48:28.396Z,31.11
2023-04-19T09:51:03.688Z,30.88
2023-04-19T09:53:36.673Z,31.11
2023-04-19T09:56:05.382Z,30.92
2023-04-19T09:58:42.612Z,31.05
2023-04-19T10:01:17.468Z,31.00
2023-04-19T10:03:49.088Z,30.95
2023-04-19T10:06:37.349Z,30.98
2023-04-19T10:09:04.295Z,30.81
2023-04-19T10:11:33.832Z,31.01
2023-04-19T10:14:00.494Z,30.92
2023-04-19T10:16:27.167Z,31.14
2023-04-19T10:18:53.826Z,31.02
2023-04-19T10:21:23.706Z,31.16
2023-04-19T10:23:50.306Z,31.07
2023-04-19T10:26:16.888Z,30.67
2023-04-19T10:28:43.487Z,30.89
2023-04-19T10:31:11.897Z,30.96
2023-04-19T10:33:38.416Z,31.02
2023-04-19T10:36:10.109Z,31.19
2023-04-19T10:38:40.102Z,31.02
2023-04-19T10:41:14.440Z,30.94
2023-04-19T10:44:08.367Z,31.14
2023-04-19T10:46:36.098Z,31.06
2023-04-19T10:49:03.982Z,31.07
2023-04-19T10:51:34.053Z,31.00
2023-04-19T10:54:04.036Z,30.90
2023-04-19T10:56:33.516Z,30.92
2023-04-19T10:59:07.649Z,30.96
2023-04-19T11:01:35.317Z,30.68
2023-04-19T11:04:02.337Z,30.90
2023-04-19T11:06:29.158Z,30.82
2023-04-19T11:08:55.920Z,30.92
2023-04-19T11:11:22.666Z,30.52
2023-04-19T11:13:49.452Z,30.06
2023-04-19T11:16:18.319Z,30.43
2023-04-19T11:18:46.077Z,30.38
2023-04-19T11:21:18.021Z,30.31
2023-04-19T11:23:44.680Z,30.55
2023-04-19T11:26:14.205Z,30.77
2023-04-19T11:28:41.322Z,31.11
2023-04-19T11:31:08.040Z,31.40
2023-04-19T11:33:35.405Z,32.91
2023-04-19T11:36:02.107Z,32.60
2023-04-19T11:38:29.086Z,33.40
2023-04-19T11:41:02.208Z,31.99
2023-04-19T11:43:35.600Z,31.72
2023-04-19T11:46:06.870Z,31.82
2023-04-19T11:48:33.701Z,31.84
2023-04-19T11:51:00.555Z,31.83
2023-04-19T11:53:27.855Z,31.55
2023-04-19T11:56:07.753Z,31.54
2023-04-19T11:58:52.626Z,31.70
2023-04-19T12:01:20.240Z,31.97
2023-04-19T12:03:54.080Z,31.68
2023-04-19T12:06:28.368Z,31.57
2023-04-19T12:08:55.552Z,31.09
2023-04-19T12:11:26.978Z,30.43
2023-04-19T12:14:23.033Z,29.99
2023-04-19T12:17:15.927Z,30.00
2023-04-19T12:19:48.000Z,29.66
2023-04-19T12:22:16.058Z,29.45
2023-04-19T12:24:42.900Z,29.48
2023-04-19T12:27:10.793Z,29.58
2023-04-19T12:29:37.571Z,29.99
2023-04-19T12:32:04.414Z,30.64
2023-04-19T12:34:31.153Z,30.68
2023-04-19T12:36:57.816Z,30.29
2023-04-19T12:39:24.821Z,30.26
2023-04-19T12:41:54.342Z,30.29
2023-04-19T12:44:21.068Z,30.19
2023-04-19T12:46:47.628Z,30.21
2023-04-19T12:49:14.500Z,30.33
2023-04-19T12:51:42.608Z,30.47
2023-04-19T12:54:09.315Z,30.70
2023-04-19T12:56:35.919Z,30.88
2023-04-19T12:59:02.490Z,30.76
2023-04-19T13:01:29.190Z,30.66
2023-04-19T13:03:58.846Z,30.70
2023-04-19T13:06:26.296Z,30.63
2023-04-19T13:09:00.443Z,30.89
2023-04-19T13:11:27.932Z,30.68
2023-04-19T13:14:00.175Z,30.70
2023-04-19T13:16:27.087Z,30.80
2023-04-19T13:18:54.687Z,30.56
2023-04-19T13:21:21.445Z,30.78
2023-04-19T13:23:48.061Z,30.93
2023-04-19T13:26:14.969Z,30.99
2023-04-19T13:28:44.594Z,30.91
2023-04-19T13:31:11.229Z,30.89
2023-04-19T13:33:37.926Z,31.41
2023-04-19T13:36:04.727Z,30.97
2023-04-19T13:38:31.385Z,31.12
2023-04-19T13:40:58.006Z,31.17
2023-04-19T13:43:24.566Z,31.15
2023-04-19T13:45:51.139Z,30.84
2023-04-19T13:48:17.754Z,30.86
2023-04-19T13:50:44.409Z,30.87
2023-04-19T13:53:10.962Z,30.31
2023-04-19T13:55:37.651Z,30.63
2023-04-19T13:58:04.254Z,30.77
2023-04-19T14:00:31.161Z,30.74
2023-04-19T14:02:58.002Z,31.01
2023-04-19T14:05:24.728Z,30.98
2023-04-19T14:07:52.315Z,30.98
2023-04-19T14:10:19.412Z,30.99
2023-04-19T14:12:46.825Z,31.16
2023-04-19T14:15:13.538Z,31.33
2023-04-19T14:17:40.374Z,31.29
2023-04-19T14:20:07.604Z,31.57
2023-04-19T14:22:42.529Z,31.17
2023-04-19T14:25:15.002Z,31.28
2023-04-19T14:27:41.648Z,31.37
2023-04-19T14:30:08.771Z,31.65
2023-04-19T14:32:36.017Z,31.86
2023-04-19T14:35:02.722Z,31.95
2023-04-19T14:37:29.396Z,31.96
2023-04-19T14:39:56.040Z,32.06
2023-04-19T14:42:23.147Z,32.06
2023-04-19T14:44:51.379Z,31.96
2023-04-19T14:47:17.958Z,31.89
2023-04-19T14:49:44.591Z,32.07
2023-04-19T14:52:11.330Z,31.92
2023-04-19T14:54:37.980Z,32.33
2023-04-19T14:57:04.610Z,32.21
2023-04-19T14:59:31.259Z,31.94
2023-04-19T15:01:58.059Z,32.14
2023-04-19T15:04:24.972Z,32.51
2023-04-19T15:06:51.724Z,32.49
2023-04-19T15:09:18.704Z,32.47
2023-04-19T15:11:45.443Z,32.27
2023-04-19T15:14:12.021Z,31.99
2023-04-19T15:16:38.714Z,32.23
2023-04-19T15:19:07.366Z,32.40
2023-04-19T15:21:34.154Z,32.16
2023-04-19T15:24:01.574Z,32.30
2023-04-19T15:26:31.575Z,32.30
2023-04-19T15:28:58.354Z,32.45
2023-04-19T15:31:25.223Z,32.46
2023-04-19T15:33:51.933Z,32.39
2023-04-19T15:36:18.623Z,32.22
2023-04-19T15:38:45.228Z,32.22
2023-04-19T15:41:14.706Z,32.08
2023-04-19T15:43:41.368Z,31.74
2023-04-19T15:46:14.157Z,29.64
2023-04-19T15:48:42.060Z,28.31
2023-04-19T15:51:08.976Z,27.75
2023-04-19T15:53:36.766Z,27.34
2023-04-19T15:56:05.109Z,27.81
2023-04-19T15:58:31.719Z,28.85
2023-04-19T16:00:58.253Z,28.25
2023-04-19T16:03:25.049Z,28.49
2023-04-19T16:05:51.819Z,28.83
2023-04-19T16:08:19.667Z,29.61
2023-04-19T16:10:49.493Z,29.92
2023-04-19T16:13:16.309Z,30.12
2023-04-19T16:15:43.275Z,30.36
2023-04-19T16:18:10.208Z,30.52
2023-04-19T16:20:37.378Z,30.69
2023-04-19T16:23:04.213Z,30.83
2023-04-19T16:25:31.262Z,30.96
2023-04-19T16:27:58.004Z,31.27
2023-04-19T16:30:26.560Z,31.46
2023-04-19T16:32:56.427Z,31.59
2023-04-19T16:35:23.472Z,31.65
2023-04-19T16:37:50.071Z,31.72
2023-04-19T16:40:16.696Z,31.67
2023-04-19T16:42:43.390Z,31.55
2023-04-19T16:45:10.220Z,31.95
2023-04-19T16:47:36.905Z,32.11
2023-04-19T16:50:04.735Z,32.11
2023-04-19T16:52:31.877Z,32.08
2023-04-19T16:54:58.501Z,32.24
2023-04-19T16:57:25.157Z,32.56
2023-04-19T16:59:51.821Z,32.46
2023-04-19T17:02:18.655Z,32.47
2023-04-19T17:04:45.711Z,32.76
2023-04-19T17:07:12.453Z,32.52
2023-04-19T17:09:39.111Z,32.82
2023-04-19T17:12:05.978Z,32.96
2023-04-19T17:14:34.055Z,32.73
2023-04-19T17:17:00.793Z,32.95
2023-04-19T17:19:27.572Z,32.96
2023-04-19T17:21:54.175Z,33.06
2023-04-19T17:24:20.841Z,33.22
2023-04-19T17:26:47.506Z,33.13
2023-04-19T17:29:14.113Z,33.29
2023-04-19T17:31:43.360Z,33.21
2023-04-19T17:34:10.055Z,33.26
2023-04-19T17:36:36.639Z,33.32
2023-04-19T17:39:03.307Z,33.31
2023-04-19T17:41:29.963Z,33.11
2023-04-19T17:43:57.214Z,32.50
2023-04-19T17:46:24.047Z,32.54
2023-04-19T17:48:50.745Z,32.49
2023-04-19T17:51:17.450Z,32.53
2023-04-19T17:53:44.367Z,32.51
2023-04-19T17:56:12.386Z,32.74
2023-04-19T17:58:45.018Z,32.55
2023-04-19T18:01:16.425Z,32.87
2023-04-19T18:03:45.034Z,32.69
2023-04-19T18:06:13.580Z,32.83
2023-04-19T18:08:45.023Z,33.26
2023-04-19T18:11:12.988Z,33.21
2023-04-19T18:13:39.912Z,33.32
2023-04-19T18:16:06.706Z,33.39
2023-04-19T18:18:33.703Z,33.35
2023-04-19T18:21:12.730Z,33.52
2023-04-19T18:23:41.015Z,33.72
2023-04-19T18:26:07.827Z,33.66
2023-04-19T18:28:36.654Z,33.88
2023-04-19T18:31:04.589Z,33.79
2023-04-19T18:33:31.326Z,33.98
2023-04-19T18:35:58.332Z,34.05
2023-04-19T18:38:25.011Z,34.04
2023-04-19T18:40:51.766Z,34.13
2023-04-19T18:43:18.536Z,31.86
2023-04-19T18:45:45.288Z,27.55
2023-04-19T18:48:12.191Z,25.49
2023-04-19T18:50:38.991Z,25.26
2023-04-19T18:53:05.693Z,25.62
2023-04-19T18:55:32.597Z,25.86
2023-04-19T18:58:01.393Z,26.30
2023-04-19T19:00:28.299Z,26.52
2023-04-19T19:02:57.067Z,26.86
2023-04-19T19:05:26.448Z,27.46
2023-04-19T19:07:53.308Z,27.86
2023-04-19T19:10:22.950Z,28.21
2023-04-19T19:13:07.950Z,28.56
2023-04-19T19:15:38.225Z,28.79
2023-04-19T19:18:05.703Z,29.23
2023-04-19T19:20:33.999Z,29.41
2023-04-19T19:23:03.917Z,29.65
2023-04-19T19:25:45.069Z,29.80
2023-04-19T19:28:16.302Z,29.79
2023-04-19T19:30:44.966Z,29.96
2023-04-19T19:33:11.968Z,29.99
2023-04-19T19:35:39.719Z,30.16
2023-04-19T19:38:06.884Z,30.13
2023-04-19T19:40:35.010Z,30.19
2023-04-19T19:43:01.855Z,30.22
2023-04-19T19:45:31.996Z,30.47
2023-04-19T19:47:59.870Z,30.31
2023-04-19T19:52:59.651Z,31.05
2023-04-19T19:55:26.507Z,30.92
2023-04-19T20:00:42.752Z,31.07
2023-04-19T20:03:10.473Z,31.07
2023-04-19T20:05:37.948Z,31.26
2023-04-19T20:08:07.795Z,31.43
2023-04-19T20:10:34.998Z,31.29
2023-04-19T20:13:02.278Z,31.28
2023-04-19T20:15:30.180Z,31.50
2023-04-19T20:17:57.048Z,31.51
2023-04-19T20:20:29.850Z,31.59
2023-04-19T20:22:56.637Z,31.58
2023-04-19T20:25:23.935Z,31.61
2023-04-19T20:27:52.474Z,31.55
2023-04-19T20:30:19.726Z,31.47
2023-04-19T20:32:48.491Z,31.54
2023-04-19T20:35:18.306Z,31.47
2023-04-19T20:38:12.864Z,31.40
2023-04-19T20:40:42.130Z,31.45
2023-04-19T20:43:09.148Z,31.55
2023-04-19T20:45:36.038Z,31.55
2023-04-19T20:48:03.264Z,31.52
2023-04-19T20:50:30.230Z,31.59
2023-04-19T20:52:58.226Z,31.62
2023-04-19T20:55:25.113Z,31.67
2023-04-19T20:57:52.017Z,31.60
2023-04-19T21:00:21.391Z,31.74
2023-04-19T21:02:49.696Z,31.65
2023-04-19T21:05:16.736Z,31.56
2023-04-19T21:07:43.788Z,31.30
2023-04-19T21:10:11.477Z,31.48
2023-04-19T21:12:40.918Z,31.37
2023-04-19T21:15:08.116Z,31.60
2023-04-19T21:17:34.861Z,31.41
2023-04-19T21:20:02.651Z,31.53
2023-04-19T21:22:29.561Z,31.44
2023-04-19T21:24:56.276Z,31.36
2023-04-19T21:27:23.110Z,31.53
2023-04-19T21:29:52.497Z,31.52
2023-04-19T21:32:19.126Z,31.63
2023-04-19T21:34:46.115Z,31.59
2023-04-19T21:37:12.829Z,31.72
2023-04-19T21:39:39.667Z,31.68
2023-04-19T21:42:06.407Z,31.56
2023-04-19T21:44:33.291Z,31.48
2023-04-19T21:46:59.969Z,31.55
2023-04-19T21:49:26.691Z,31.61
2023-04-19T21:51:53.414Z,31.47
2023-04-19T21:54:32.808Z,31.53
2023-04-19T21:57:00.845Z,31.57
2023-04-19T21:59:28.233Z,31.64
2023-04-19T22:01:54.863Z,31.76
2023-04-19T22:04:21.563Z,31.67
2023-04-19T22:06:48.114Z,31.80
2023-04-19T22:09:15.449Z,31.51
2023-04-19T22:11:42.497Z,31.60
2023-04-19T22:14:09.134Z,31.40
2023-04-19T22:16:35.857Z,31.61
2023-04-19T22:19:03.162Z,31.61
2023-04-19T22:21:30.767Z,31.31
2023-04-19T22:23:57.374Z,31.67
2023-04-19T22:26:26.098Z,31.83
2023-04-19T22:28:53.545Z,31.75
2023-04-19T22:31:20.120Z,31.76
2023-04-19T22:33:46.778Z,31.71
2023-04-19T22:36:13.377Z,31.79
2023-04-19T22:38:39.971Z,31.68
2023-04-19T22:41:06.546Z,31.51
2023-04-19T22:43:33.181Z,31.68
2023-04-19T22:45:59.882Z,31.75
2023-04-19T22:48:27.980Z,31.76
2023-04-19T22:50:54.580Z,31.74
2023-04-19T22:53:21.170Z,31.72
2023-04-19T22:55:47.741Z,31.78
2023-04-19T22:58:14.329Z,31.74
2023-04-19T23:00:40.984Z,31.79
2023-04-19T23:03:07.604Z,31.74
2023-04-19T23:05:34.306Z,31.65
2023-04-19T23:08:03.864Z,31.84
2023-04-19T23:10:31.647Z,31.67
2023-04-19T23:12:58.218Z,31.88
2023-04-19T23:15:24.910Z,31.78
2023-04-19T23:17:52.387Z,31.81
2023-04-19T23:20:19.065Z,31.91
2023-04-19T23:22:45.782Z,31.90
2023-04-19T23:25:12.334Z,31.91
2023-04-19T23:27:38.935Z,31.65
2023-04-19T23:30:07.280Z,31.92
2023-04-19T23:32:33.969Z,31.89
2023-04-19T23:35:00.623Z,31.87
2023-04-19T23:37:27.179Z,31.87
2023-04-19T23:39:53.708Z,31.84
2023-04-19T23:42:20.486Z,31.84
2023-04-19T23:44:47.083Z,31.71
2023-04-19T23:47:13.650Z,31.81
2023-04-19T23:49:40.333Z,31.84
2023-04-19T23:52:06.987Z,31.75
2023-04-19T23:54:33.576Z,31.81
2023-04-19T23:57:00.140Z,31.97
2023-04-19T23:59:27.235Z,31.77
